createdAt,value
2022-08-30T00:01:52.368Z,89.40
2022-08-30T00:04:19.405Z,89.70
2022-08-30T00:06:46.542Z,89.70
2022-08-30T00:45:47.714Z,91.30
2022-08-30T00:48:33.524Z,91.40
2022-08-30T00:51:05.283Z,91.50
2022-08-30T00:53:46.532Z,91.50
2022-08-30T00:59:35.628Z,91.70
2022-08-30T01:02:22.599Z,91.90
2022-08-30T01:07:31.924Z,91.90
2022-08-30T01:10:02.608Z,92.00
2022-08-30T01:12:29.906Z,92.10
2022-08-30T01:15:07.220Z,92.20
2022-08-30T01:17:53.110Z,92.30
2022-08-30T01:24:00.323Z,92.50
2022-08-30T01:26:32.336Z,92.60
2022-08-30T01:29:03.366Z,92.60
2022-08-30T01:31:30.104Z,92.50
2022-08-30T01:37:11.820Z,92.60
2022-08-30T01:39:55.395Z,92.60
2022-08-30T01:42:34.865Z,92.50
2022-08-30T01:45:01.644Z,92.70
2022-08-30T01:47:48.597Z,92.70
2022-08-30T01:50:15.312Z,92.70
2022-08-30T01:52:56.961Z,92.80
2022-08-30T01:55:25.170Z,92.80
2022-08-30T01:57:51.942Z,92.80
2022-08-30T02:00:33.776Z,92.70
2022-08-30T02:03:00.513Z,92.70
2022-08-30T02:05:27.177Z,92.80
2022-08-30T02:08:12.329Z,92.80
2022-08-30T02:10:38.986Z,92.70
2022-08-30T02:13:28.604Z,92.60
2022-08-30T02:15:55.295Z,92.50
2022-08-30T02:18:40.624Z,92.50
2022-08-30T02:21:22.749Z,92.40
2022-08-30T02:23:50.290Z,92.40
2022-08-30T02:26:18.512Z,92.40
2022-08-30T02:28:59.050Z,92.30
2022-08-30T02:31:25.914Z,92.30
2022-08-30T02:36:38.243Z,92.40
2022-08-30T02:39:05.098Z,92.40
2022-08-30T02:41:46.578Z,92.50
2022-08-30T02:44:36.768Z,92.50
2022-08-30T02:47:27.698Z,92.50
2022-08-30T02:49:54.568Z,92.70
2022-08-30T02:55:02.394Z,93.00
2022-08-30T02:57:29.078Z,93.20
2022-08-30T03:00:09.648Z,93.40
2022-08-30T03:03:19.934Z,93.50
2022-08-30T03:05:58.960Z,93.60
2022-08-30T03:22:45.789Z,94.20
2022-08-30T03:25:28.042Z,94.30
2022-08-30T03:28:22.214Z,94.30
2022-08-30T03:31:04.638Z,94.40
2022-08-30T03:33:38.136Z,94.40
2022-08-30T03:36:26.195Z,94.40
2022-08-30T03:42:26.320Z,94.70
2022-08-30T03:48:41.243Z,94.70
2022-08-30T03:51:33.222Z,94.70
2022-08-30T03:54:06.164Z,94.80
2022-08-30T03:56:32.999Z,94.80
2022-08-30T03:59:17.845Z,94.80
2022-08-30T04:01:44.712Z,94.90
2022-08-30T04:04:29.666Z,95.00
2022-08-30T04:07:05.100Z,95.10
2022-08-30T04:09:46.894Z,95.10
2022-08-30T04:15:55.082Z,95.20
2022-08-30T04:18:33.013Z,95.30
2022-08-30T04:21:17.283Z,95.50
2022-08-30T04:23:44.425Z,95.50
2022-08-30T04:26:23.060Z,95.40
2022-08-30T04:29:10.488Z,95.40
2022-08-30T04:31:37.280Z,95.70
2022-08-30T04:34:48.809Z,95.80
2022-08-30T04:37:16.708Z,96.20
2022-08-30T04:39:47.554Z,96.30
2022-08-30T04:42:14.325Z,96.40
2022-08-30T04:44:41.081Z,96.50
2022-08-30T04:50:38.799Z,96.70
2022-08-30T04:53:21.437Z,96.80
2022-08-30T04:55:48.479Z,96.80
2022-08-30T04:58:30.562Z,96.70
2022-08-30T05:01:45.551Z,96.60
2022-08-30T05:18:00.204Z,95.60
2022-08-30T05:23:32.463Z,95.50
2022-08-30T05:28:55.377Z,95.30
2022-08-30T05:31:30.695Z,95.30
2022-08-30T05:34:04.111Z,95.10
2022-08-30T05:36:33.679Z,94.80
2022-08-30T05:39:00.654Z,94.50
2022-08-30T05:41:28.593Z,94.50
2022-08-30T05:44:44.403Z,94.40
2022-08-30T05:50:53.133Z,93.70
2022-08-30T05:53:32.282Z,93.10
2022-08-30T05:56:38.513Z,92.60
2022-08-30T05:59:18.021Z,92.40
2022-08-30T06:02:11.378Z,92.00
2022-08-30T06:19:47.691Z,88.90
2022-08-30T06:22:54.627Z,87.80
2022-08-30T06:25:23.522Z,87.70
2022-08-30T06:28:23.537Z,86.60
2022-08-30T06:31:33.387Z,86.20
2022-08-30T06:37:46.520Z,84.30
2022-08-30T07:02:28.227Z,77.50
2022-08-30T07:15:10.923Z,75.50
2022-08-30T07:17:43.853Z,74.80
2022-08-30T07:20:20.548Z,74.10
2022-08-30T07:22:48.353Z,73.80
2022-08-30T07:25:16.155Z,72.70
2022-08-30T07:27:43.127Z,71.90
2022-08-30T07:30:10.293Z,71.20
2022-08-30T07:32:37.279Z,70.00
2022-08-30T07:35:13.268Z,69.90
2022-08-30T07:37:39.904Z,69.10
2022-08-30T07:40:07.184Z,67.80
2022-08-30T07:42:33.904Z,67.20
2022-08-30T07:45:00.651Z,67.40
2022-08-30T07:47:27.456Z,66.70
2022-08-30T07:53:10.662Z,65.40
2022-08-30T07:55:38.902Z,65.30
2022-08-30T07:58:06.086Z,65.00
2022-08-30T08:00:32.887Z,65.10
2022-08-30T08:03:11.993Z,64.80
2022-08-30T08:05:40.834Z,64.40
2022-08-30T08:08:07.781Z,63.60
2022-08-30T08:10:37.144Z,63.90
2022-08-30T08:13:04.152Z,63.50
2022-08-30T08:15:35.866Z,63.00
2022-08-30T08:18:14.036Z,62.00
2022-08-30T08:20:41.117Z,62.10
2022-08-30T08:23:21.814Z,62.60
2022-08-30T08:25:48.516Z,62.10
2022-08-30T08:28:24.262Z,61.60
2022-08-30T08:30:53.861Z,60.50
2022-08-30T08:36:16.421Z,59.30
2022-08-30T08:38:46.462Z,59.50
2022-08-30T08:41:46.904Z,59.00
2022-08-30T08:44:33.819Z,58.90
2022-08-30T09:13:26.212Z,55.30
2022-08-30T09:16:02.399Z,55.30
2022-08-30T09:19:23.227Z,54.80
2022-08-30T09:36:16.809Z,52.40
2022-08-30T09:38:44.605Z,51.30
2022-08-30T09:41:51.685Z,52.10
2022-08-30T09:44:25.292Z,52.70
2022-08-30T09:53:26.320Z,50.40
2022-08-30T09:56:17.527Z,50.20
2022-08-30T10:02:06.734Z,50.70
2022-08-30T10:30:51.552Z,47.80
2022-08-30T10:33:38.617Z,48.60
2022-08-30T10:36:30.809Z,47.90
2022-08-30T10:38:59.497Z,49.50
2022-08-30T10:41:36.241Z,49.00
2022-08-30T10:50:56.859Z,49.30
2022-08-30T10:53:41.238Z,49.20
2022-08-30T10:59:18.702Z,48.80
2022-08-30T11:02:07.537Z,48.80
2022-08-30T11:04:53.003Z,48.90
2022-08-30T11:07:52.179Z,49.40
2022-08-30T11:10:41.089Z,49.40
2022-08-30T11:19:24.789Z,49.50
2022-08-30T11:25:26.104Z,49.50
2022-08-30T11:27:55.431Z,50.10
2022-08-30T11:30:27.001Z,48.40
2022-08-30T11:35:50.778Z,49.30
2022-08-30T11:38:29.381Z,49.70
2022-08-30T11:41:00.412Z,49.30
2022-08-30T11:46:31.225Z,48.80
2022-08-30T11:49:03.447Z,49.40
2022-08-30T11:54:25.860Z,48.70
2022-08-30T11:57:08.691Z,48.40
2022-08-30T12:00:28.578Z,48.30
2022-08-30T12:03:05.092Z,48.40
2022-08-30T12:05:44.412Z,48.60
2022-08-30T12:08:35.008Z,48.20
2022-08-30T12:11:12.116Z,48.10
2022-08-30T12:13:45.015Z,48.20
2022-08-30T12:19:24.463Z,48.20
2022-08-30T12:22:02.584Z,47.70
2022-08-30T12:24:35.613Z,47.50
2022-08-30T12:27:32.646Z,47.40
2022-08-30T12:30:53.401Z,47.40
2022-08-30T12:33:29.571Z,46.40
2022-08-30T12:35:57.911Z,47.00
2022-08-30T12:38:27.796Z,47.10
2022-08-30T12:40:57.978Z,46.90
2022-08-30T12:46:21.861Z,47.20
2022-08-30T12:48:52.670Z,46.90
2022-08-30T12:51:46.608Z,45.70
2022-08-30T12:57:34.874Z,46.30
2022-08-30T12:59:59.482Z,46.60
2022-08-30T13:02:53.887Z,46.50
2022-08-30T13:05:45.524Z,46.60
2022-08-30T13:08:51.240Z,47.00
2022-08-30T13:11:30.556Z,46.30
2022-08-30T13:14:37.193Z,46.30
2022-08-30T13:17:29.117Z,46.30
2022-08-30T13:20:37.435Z,46.10
2022-08-30T13:26:52.298Z,47.30
2022-08-30T13:29:26.110Z,47.10
2022-08-30T13:31:56.328Z,45.80
2022-08-30T13:34:29.158Z,46.50
2022-08-30T13:37:06.770Z,46.40
2022-08-30T13:39:34.594Z,46.40
2022-08-30T13:42:35.683Z,46.60
2022-08-30T13:44:53.297Z,46.40
2022-08-30T13:47:37.063Z,46.70
2022-08-30T13:50:05.209Z,46.90
2022-08-30T13:52:32.557Z,47.00
2022-08-30T13:54:59.616Z,46.90
2022-08-30T14:01:12.361Z,46.50
2022-08-30T14:07:13.986Z,46.30
2022-08-30T14:09:53.242Z,46.80
2022-08-30T14:12:52.344Z,46.80
2022-08-30T14:15:07.704Z,46.10
2022-08-30T14:23:59.687Z,46.70
2022-08-30T14:26:41.653Z,46.30
2022-08-30T14:29:12.364Z,46.60
2022-08-30T14:37:03.829Z,46.20
2022-08-30T14:39:37.888Z,46.20
2022-08-30T14:42:18.912Z,45.80
2022-08-30T14:45:02.849Z,46.00
2022-08-30T14:48:02.484Z,45.60
2022-08-30T14:50:36.941Z,46.10
2022-08-30T15:02:04.165Z,45.70
2022-08-30T15:07:38.820Z,46.70
2022-08-30T15:10:09.766Z,50.40
2022-08-30T15:12:41.343Z,51.30
2022-08-30T15:15:08.821Z,51.30
2022-08-30T15:17:38.652Z,51.50
2022-08-30T15:20:18.576Z,51.50
2022-08-30T15:22:46.231Z,52.00
2022-08-30T15:25:27.279Z,51.40
2022-08-30T15:27:54.193Z,51.70
2022-08-30T15:30:20.902Z,52.00
2022-08-30T15:32:47.818Z,51.20
2022-08-30T15:38:44.021Z,52.00
2022-08-30T15:41:12.677Z,52.80
2022-08-30T15:43:40.234Z,52.90
2022-08-30T15:46:29.548Z,52.60
2022-08-30T15:49:16.493Z,52.70
2022-08-30T15:51:51.565Z,53.10
2022-08-30T15:54:23.173Z,53.20
2022-08-30T15:56:56.105Z,53.10
2022-08-30T15:59:23.043Z,53.50
2022-08-30T16:07:25.387Z,52.90
2022-08-30T16:10:05.076Z,53.20
2022-08-30T16:15:15.465Z,52.80
2022-08-30T16:20:42.420Z,53.40
2022-08-30T16:23:18.592Z,53.90
2022-08-30T16:25:49.538Z,54.10
2022-08-30T16:28:20.856Z,54.00
2022-08-30T16:34:20.127Z,54.70
2022-08-30T16:42:31.108Z,54.30
2022-08-30T16:45:10.298Z,54.50
2022-08-30T17:11:18.223Z,55.40
2022-08-30T17:13:45.257Z,55.40
2022-08-30T17:16:12.037Z,55.20
2022-08-30T17:18:39.110Z,55.30
2022-08-30T17:21:13.085Z,55.70
2022-08-30T17:23:52.142Z,55.90
2022-08-30T17:26:27.348Z,56.20
2022-08-30T17:28:53.995Z,56.60
2022-08-30T17:31:24.172Z,56.80
2022-08-30T17:42:05.529Z,57.60
2022-08-30T17:44:47.130Z,57.80
2022-08-30T17:47:14.566Z,58.00
2022-08-30T17:49:42.405Z,58.00
2022-08-30T17:52:13.028Z,58.20
2022-08-30T17:54:41.745Z,58.60
2022-08-30T17:57:11.081Z,58.80
2022-08-30T17:59:38.541Z,59.20
2022-08-30T18:02:06.353Z,59.70
2022-08-30T18:04:35.233Z,60.20
2022-08-30T18:09:46.899Z,61.30
2022-08-30T18:15:12.275Z,62.30
2022-08-30T18:17:47.163Z,63.10
2022-08-30T18:20:15.900Z,63.00
2022-08-30T18:22:43.151Z,63.50
2022-08-30T18:25:17.765Z,63.80
2022-08-30T18:27:47.597Z,64.00
2022-08-30T18:30:29.878Z,64.50
2022-08-30T18:33:12.167Z,64.90
2022-08-30T18:35:39.855Z,65.40
2022-08-30T18:38:20.207Z,65.60
2022-08-30T18:40:52.437Z,66.20
2022-08-30T18:43:30.581Z,66.70
2022-08-30T18:46:09.366Z,66.90
2022-08-30T18:51:22.156Z,67.70
2022-08-30T18:53:49.657Z,68.20
2022-08-30T18:56:29.699Z,68.60
2022-08-30T19:09:48.067Z,70.20
2022-08-30T19:12:14.748Z,70.50
2022-08-30T19:14:44.710Z,70.80
2022-08-30T19:17:11.707Z,70.90
2022-08-30T19:19:49.162Z,71.10
2022-08-30T19:22:36.076Z,71.40
2022-08-30T19:25:38.041Z,71.50
2022-08-30T19:30:43.958Z,72.00
2022-08-30T19:33:11.524Z,72.30
2022-08-30T19:35:48.935Z,72.30
2022-08-30T19:38:17.701Z,72.70
2022-08-30T19:40:44.734Z,72.80
2022-08-30T20:06:21.430Z,72.30
2022-08-30T20:08:48.316Z,72.40
2022-08-30T20:11:19.884Z,72.30
2022-08-30T20:13:47.901Z,72.40
2022-08-30T20:19:20.443Z,72.40
2022-08-30T20:34:57.820Z,72.90
2022-08-30T20:37:25.833Z,72.90
2022-08-30T20:39:57.171Z,73.00
2022-08-30T20:42:24.208Z,73.10
2022-08-30T20:44:51.510Z,73.10
2022-08-30T20:47:20.172Z,73.10
2022-08-30T21:03:25.831Z,73.90
2022-08-30T21:05:54.041Z,74.10
2022-08-30T21:08:26.536Z,74.20
2022-08-30T21:10:53.538Z,74.40
2022-08-30T21:13:33.301Z,74.50
2022-08-30T21:16:03.551Z,74.80
2022-08-30T21:18:32.446Z,75.00
2022-08-30T21:21:00.754Z,75.10
2022-08-30T21:23:36.168Z,75.20
2022-08-30T21:26:08.584Z,75.20
2022-08-30T21:28:36.299Z,75.30
2022-08-30T21:31:13.070Z,75.20
2022-08-30T21:33:42.071Z,75.10
2022-08-30T21:36:09.930Z,75.10
2022-08-30T21:38:37.803Z,75.10
2022-08-30T21:41:04.444Z,75.20
2022-08-30T21:46:28.499Z,75.20
2022-08-30T21:49:10.136Z,75.10
2022-08-30T21:52:06.256Z,75.00
2022-08-30T21:54:32.899Z,74.90
2022-08-30T21:57:21.334Z,74.80
2022-08-30T21:59:53.840Z,74.70
2022-08-30T22:02:22.484Z,74.60
2022-08-30T22:04:53.884Z,74.60
2022-08-30T22:07:20.702Z,74.30
2022-08-30T22:09:53.617Z,74.30
2022-08-30T22:15:50.029Z,74.30
2022-08-30T22:25:27.001Z,73.90
2022-08-30T22:28:07.249Z,73.50
2022-08-30T22:30:36.722Z,73.40
2022-08-30T22:33:44.269Z,73.30
2022-08-30T22:39:43.260Z,73.10
2022-08-30T22:42:20.860Z,73.20
2022-08-30T22:45:31.425Z,73.40
2022-08-30T22:48:11.989Z,73.20
2022-08-30T22:53:45.715Z,73.40
2022-08-30T22:56:33.045Z,73.20
2022-08-30T22:59:11.556Z,73.20
2022-08-30T23:01:40.985Z,73.20
2022-08-30T23:04:09.117Z,73.10
2022-08-30T23:06:35.853Z,73.10
2022-08-30T23:09:04.006Z,73.10
2022-08-30T23:11:39.783Z,73.20
2022-08-30T23:14:15.536Z,73.10
2022-08-30T23:17:17.314Z,73.00
2022-08-30T23:19:56.461Z,73.10
2022-08-30T23:22:28.085Z,73.10
2022-08-30T23:28:52.116Z,73.00
2022-08-30T23:31:19.103Z,73.10
2022-08-30T23:33:51.803Z,73.10
2022-08-30T23:36:18.580Z,73.10
2022-08-30T23:38:48.473Z,73.20
2022-08-30T23:41:15.318Z,73.20
2022-08-30T23:43:41.979Z,73.10
2022-08-30T23:46:17.028Z,73.20
2022-08-30T23:48:50.885Z,73.30
2022-08-30T23:51:25.330Z,73.30
2022-08-30T23:54:14.153Z,73.30
2022-08-30T23:57:01.025Z,73.30
2022-08-30T23:59:37.151Z,73.40
